MSC Clorinda — 3FDW7 — position and weather

sailwx.info

Track history (hours):
 
Tides and Currents Weather Stations Pressure Air Temp Water Temp Dewpoint Dewpoint Depression Visibility Wind Speed Wind Dir Waves Ship Positions

MSC Clorinda

Last reported at 2017-Mar-18 07:16 UTC. Time now 2017-Mar-23 20:12 UTC.
Position N 01°59' E 102°13'.

Length 366 m; draft 15.4 m.

Type: Ship (hazmat cat A). MMSI: 373233000.

Date/timePositionNaut miles runAvg speedWind from/ knotsBaromVisibWave heightAir tempDewpointWater temp
2017-Mar-18 07:16N 01°59' E 102°13'1420.1
2017-Mar-18 06:33N 01°52' E 102°25'1919.4
2017-Mar-18 05:33N 01°44' E 102°43'4519.0
2017-Mar-18 03:12N 01°18' E 103°19'1218.7
2017-Mar-18 02:33N 01°13' E 103°30'1312.8
2017-Mar-18 01:33N 01°09' E 103°43'6 6.3
2017-Mar-18 00:33N 01°13' E 103°47'3 3.4
2017-Mar-17 23:33N 01°16' E 103°46'0 0.0
2017-Mar-17 22:33N 01°16' E 103°46'0 0.0
2017-Mar-17 21:33N 01°16' E 103°46'0 0.0
2017-Mar-17 20:33N 01°16' E 103°46'0 0.0
2017-Mar-17 19:33N 01°16' E 103°46'0 0.0
2017-Mar-17 18:33N 01°16' E 103°46'0 0.0
2017-Mar-17 17:30N 01°16' E 103°46'0 0.0
2017-Mar-17 16:33N 01°16' E 103°46'0 0.0
2017-Mar-17 15:33N 01°16' E 103°46'0 0.0
2017-Mar-17 14:33N 01°16' E 103°46'0 0.0
2017-Mar-17 13:33N 01°16' E 103°46'0 0.0
2017-Mar-17 12:33N 01°16' E 103°46'0 0.0
2017-Mar-17 11:21N 01°16' E 103°46'0 0.0
2017-Mar-17 10:33N 01°16' E 103°46'0 0.0
2017-Mar-17 09:33N 01°16' E 103°46'0 0.0
2017-Mar-17 08:30N 01°16' E 103°46'0 0.0
2017-Mar-17 07:33N 01°16' E 103°46'0 0.0
2017-Mar-17 06:33N 01°16' E 103°46'0 0.0
2017-Mar-17 05:30N 01°16' E 103°46'0 0.0
2017-Mar-17 04:33N 01°16' E 103°46'0 0.0
2017-Mar-17 03:33N 01°16' E 103°46'0 0.0
2017-Mar-17 02:33N 01°16' E 103°46'0 0.0
2017-Mar-17 01:33N 01°16' E 103°46'0 0.4
2017-Mar-17 00:33N 01°16' E 103°45'2 1.8
2017-Mar-16 23:33N 01°15' E 103°47'8 7.5
2017-Mar-16 22:33N 01°14' E 103°54'6 5.8
2017-Mar-16 21:33N 01°15' E 103°60'10 9.3
2017-Mar-16 20:27N 01°17' E 104°10'1211.4
2017-Mar-16 19:25N 01°20' E 104°21'  
2017-Mar-12 09:26N 23°52' E 118°23'45015.9
2017-Mar-11 05:09N 30°33' E 122°12'910.2
2017-Mar-11 04:18N 30°38' E 122°03'0 0.1
2017-Mar-11 02:13N 30°38' E 122°03'35 1.3
2017-Mar-09 22:29N 30°27' E 122°41'0 0.0
2017-Mar-09 07:32N 30°27' E 122°42'  
Track history (hours):
 
Tides and Currents Weather Stations Pressure Air Temp Water Temp Dewpoint Dewpoint Depression Visibility Wind Speed Wind Dir Waves Ship Positions

MSC Clorinda

Last reported at 2017-Mar-18 07:16 UTC. Time now 2017-Mar-23 20:12 UTC.
Position N 01°59' E 102°13'.

Length 366 m; draft 15.4 m.

Type: Ship (hazmat cat A). MMSI: 373233000.

Date/timePositionNaut miles runAvg speedWind from/ knotsBaromVisibWave heightAir tempDewpointWater temp
2017-Mar-18 07:16N 01°59' E 102°13'1420.1
2017-Mar-18 06:33N 01°52' E 102°25'1919.4
2017-Mar-18 05:33N 01°44' E 102°43'4519.0
2017-Mar-18 03:12N 01°18' E 103°19'1218.7
2017-Mar-18 02:33N 01°13' E 103°30'1312.8
2017-Mar-18 01:33N 01°09' E 103°43'6 6.3
2017-Mar-18 00:33N 01°13' E 103°47'3 3.4
2017-Mar-17 23:33N 01°16' E 103°46'0 0.0
2017-Mar-17 22:33N 01°16' E 103°46'0 0.0
2017-Mar-17 21:33N 01°16' E 103°46'0 0.0
2017-Mar-17 20:33N 01°16' E 103°46'0 0.0
2017-Mar-17 19:33N 01°16' E 103°46'0 0.0
2017-Mar-17 18:33N 01°16' E 103°46'0 0.0
2017-Mar-17 17:30N 01°16' E 103°46'0 0.0
2017-Mar-17 16:33N 01°16' E 103°46'0 0.0
2017-Mar-17 15:33N 01°16' E 103°46'0 0.0
2017-Mar-17 14:33N 01°16' E 103°46'0 0.0
2017-Mar-17 13:33N 01°16' E 103°46'0 0.0
2017-Mar-17 12:33N 01°16' E 103°46'0 0.0
2017-Mar-17 11:21N 01°16' E 103°46'0 0.0
2017-Mar-17 10:33N 01°16' E 103°46'0 0.0
2017-Mar-17 09:33N 01°16' E 103°46'0 0.0
2017-Mar-17 08:30N 01°16' E 103°46'0 0.0
2017-Mar-17 07:33N 01°16' E 103°46'0 0.0
2017-Mar-17 06:33N 01°16' E 103°46'0 0.0
2017-Mar-17 05:30N 01°16' E 103°46'0 0.0
2017-Mar-17 04:33N 01°16' E 103°46'0 0.0
2017-Mar-17 03:33N 01°16' E 103°46'0 0.0
2017-Mar-17 02:33N 01°16' E 103°46'0 0.0
2017-Mar-17 01:33N 01°16' E 103°46'0 0.4
2017-Mar-17 00:33N 01°16' E 103°45'2 1.8
2017-Mar-16 23:33N 01°15' E 103°47'8 7.5
2017-Mar-16 22:33N 01°14' E 103°54'6 5.8
2017-Mar-16 21:33N 01°15' E 103°60'10 9.3
2017-Mar-16 20:27N 01°17' E 104°10'1211.4
2017-Mar-16 19:25N 01°20' E 104°21'  
2017-Mar-12 09:26N 23°52' E 118°23'45015.9
2017-Mar-11 05:09N 30°33' E 122°12'910.2
2017-Mar-11 04:18N 30°38' E 122°03'0 0.1
2017-Mar-11 02:13N 30°38' E 122°03'35 1.3
2017-Mar-09 22:29N 30°27' E 122°41'0 0.0
2017-Mar-09 07:32N 30°27' E 122°42'  

Dump ship's entire track history